Coosa, Georgia
Current Conditions -  °F | °C
As of 1:53 PM on Saturday 25 Oct 2014 (Local Time) from KRMG Reporting Station
Clear Clear  
Wind Chill: 73°   Ceiling: Unl
Heat Index: 73°   Visibility: 10mi
Dew Point: 48°   Wind: 8mph
Humidity: 41%   Direction: 360°N
Pressure: 30.06"   Gusts: NA
Location:  34.25°N, 85.35°W
Report Text: KRMG 251753Z AUTO 36007KT 10SM CLR 23/09 A3006 RMK AO2 SLP172 T02280089 10228 20039 58016
Loading
Personal Weather Stations






























Interactive Weather Map
Tropical Storm Tracking
New forecast layout! Learn more

10-Day Weather Forecast

Advertisements
Track Severe Weather on mobile